createdAt,value
2022-07-30T00:00:24.712Z,3.25
2022-07-30T00:02:52.749Z,4.25
2022-07-30T00:05:19.705Z,3.30
2022-07-30T00:07:46.743Z,3.50
2022-07-30T00:10:14.133Z,3.97
2022-07-30T00:12:41.166Z,3.25
2022-07-30T00:15:08.972Z,3.20
2022-07-30T00:17:35.887Z,4.60
2022-07-30T00:20:03.222Z,3.38
2022-07-30T00:22:30.993Z,3.10
2022-07-30T00:24:58.213Z,2.80
2022-07-30T00:27:25.383Z,3.33
2022-07-30T00:29:52.239Z,3.00
2022-07-30T00:32:19.100Z,2.70
2022-07-30T00:34:45.918Z,3.50
2022-07-30T00:37:12.875Z,3.13
2022-07-30T00:39:39.680Z,3.22
2022-07-30T00:42:06.535Z,3.35
2022-07-30T00:44:33.574Z,2.95
2022-07-30T00:47:00.728Z,2.90
2022-07-30T00:49:27.857Z,2.35
2022-07-30T00:51:54.788Z,2.40
2022-07-30T00:54:22.514Z,2.25
2022-07-30T00:56:49.845Z,2.92
2022-07-30T00:59:17.077Z,2.53
2022-07-30T01:01:43.982Z,3.17
2022-07-30T01:04:13.875Z,2.55
2022-07-30T01:06:40.852Z,3.53
2022-07-30T01:09:08.300Z,1.90
2022-07-30T01:11:41.295Z,2.17
2022-07-30T01:14:09.509Z,2.30
2022-07-30T01:16:38.670Z,2.00
2022-07-30T01:19:30.733Z,2.40
2022-07-30T01:22:35.293Z,2.20
2022-07-30T01:25:02.706Z,1.85
2022-07-30T01:27:41.856Z,2.22
2022-07-30T01:30:10.727Z,2.25
2022-07-30T01:32:42.192Z,2.42
2022-07-30T01:35:11.185Z,2.20
2022-07-30T01:37:39.468Z,2.05
2022-07-30T01:40:07.357Z,2.08
2022-07-30T01:42:36.351Z,2.05
2022-07-30T01:45:04.566Z,2.70
2022-07-30T01:47:34.608Z,2.13
2022-07-30T01:50:02.925Z,2.53
2022-07-30T01:52:33.005Z,2.20
2022-07-30T01:55:02.168Z,2.30
2022-07-30T01:57:31.022Z,2.40
2022-07-30T02:00:02.199Z,2.65
2022-07-30T02:02:29.190Z,2.40
2022-07-30T02:04:56.097Z,2.15
2022-07-30T02:07:38.065Z,2.70
2022-07-30T02:10:19.410Z,2.70
2022-07-30T02:12:52.636Z,1.95
2022-07-30T02:15:28.184Z,2.53
2022-07-30T02:18:01.828Z,3.43
2022-07-30T02:20:31.939Z,2.42
2022-07-30T02:23:07.307Z,2.08
2022-07-30T02:25:35.947Z,1.90
2022-07-30T02:28:07.677Z,2.00
2022-07-30T02:30:37.902Z,2.45
2022-07-30T02:33:10.817Z,2.92
2022-07-30T02:35:39.021Z,2.95
2022-07-30T02:38:08.050Z,2.97
2022-07-30T02:40:35.842Z,2.42
2022-07-30T02:43:02.870Z,2.15
2022-07-30T02:45:30.938Z,2.67
2022-07-30T02:48:07.714Z,2.72
2022-07-30T02:50:35.779Z,2.45
2022-07-30T02:53:05.413Z,2.33
2022-07-30T02:55:35.662Z,2.55
2022-07-30T02:58:04.784Z,2.30
2022-07-30T03:00:33.921Z,2.70
2022-07-30T03:03:02.492Z,2.33
2022-07-30T03:05:29.900Z,2.78
2022-07-30T03:07:59.898Z,2.60
2022-07-30T03:10:27.901Z,3.05
2022-07-30T03:12:56.355Z,2.22
2022-07-30T03:15:23.476Z,2.75
2022-07-30T03:17:53.882Z,2.60
2022-07-30T03:20:29.899Z,2.30
2022-07-30T03:22:59.805Z,2.80
2022-07-30T03:25:28.720Z,2.60
2022-07-30T03:28:00.404Z,2.47
2022-07-30T03:30:28.296Z,2.97
2022-07-30T03:32:57.373Z,2.53
2022-07-30T03:35:31.121Z,2.53
2022-07-30T03:37:59.592Z,2.22
2022-07-30T03:40:27.013Z,2.25
2022-07-30T03:42:54.208Z,2.45
2022-07-30T03:45:21.856Z,2.75
2022-07-30T03:47:49.206Z,3.15
2022-07-30T03:50:16.625Z,2.85
2022-07-30T03:52:44.373Z,2.55
2022-07-30T03:55:12.644Z,2.72
2022-07-30T03:57:39.815Z,2.88
2022-07-30T04:00:14.941Z,2.38
2022-07-30T04:02:46.534Z,2.97
2022-07-30T04:05:14.461Z,2.22
2022-07-30T04:07:45.108Z,2.47
2022-07-30T04:10:13.210Z,2.72
2022-07-30T04:12:40.233Z,3.10
2022-07-30T04:16:40.234Z,2.40
2022-07-30T04:18:02.494Z,2.75
2022-07-30T04:20:39.891Z,2.40
2022-07-30T04:23:08.220Z,2.97
2022-07-30T04:25:35.322Z,2.35
2022-07-30T04:28:04.193Z,2.20
2022-07-30T04:30:35.023Z,2.92
2022-07-30T04:33:04.615Z,2.45
2022-07-30T04:35:50.577Z,2.20
2022-07-30T04:38:20.098Z,2.42
2022-07-30T04:40:47.700Z,2.20
2022-07-30T04:43:15.299Z,2.20
2022-07-30T04:45:43.051Z,2.30
2022-07-30T04:48:09.996Z,2.42
2022-07-30T04:50:41.193Z,2.10
2022-07-30T04:53:09.026Z,2.53
2022-07-30T04:55:39.255Z,2.42
2022-07-30T04:58:07.364Z,2.08
2022-07-30T05:00:40.751Z,2.25
2022-07-30T05:03:11.887Z,2.30
2022-07-30T05:05:40.337Z,1.70
2022-07-30T05:08:07.800Z,1.63
2022-07-30T05:10:34.736Z,2.05
2022-07-30T05:13:01.645Z,2.30
2022-07-30T05:15:37.141Z,1.90
2022-07-30T05:18:04.461Z,2.13
2022-07-30T05:20:31.298Z,1.90
2022-07-30T05:22:58.163Z,1.70
2022-07-30T05:25:25.085Z,1.75
2022-07-30T05:27:52.697Z,1.55
2022-07-30T05:30:19.801Z,1.65
2022-07-30T05:32:53.696Z,2.05
2022-07-30T05:35:22.992Z,1.83
2022-07-30T05:37:49.850Z,1.50
2022-07-30T05:40:16.657Z,1.75
2022-07-30T05:42:43.497Z,1.40
2022-07-30T05:45:10.630Z,1.15
2022-07-30T05:47:37.875Z,1.48
2022-07-30T05:50:05.546Z,1.80
2022-07-30T05:52:33.689Z,1.42
2022-07-30T05:55:00.597Z,1.50
2022-07-30T05:57:27.447Z,1.23
2022-07-30T05:59:54.286Z,1.60
2022-07-30T06:02:24.308Z,1.75
2022-07-30T06:04:51.980Z,1.83
2022-07-30T06:07:19.235Z,1.70
2022-07-30T06:09:46.120Z,1.63
2022-07-30T06:12:12.940Z,1.38
2022-07-30T06:14:39.806Z,2.35
2022-07-30T06:17:06.707Z,1.65
2022-07-30T06:19:33.538Z,2.25
2022-07-30T06:22:06.012Z,1.65
2022-07-30T06:24:33.358Z,1.77
2022-07-30T06:27:00.482Z,1.17
2022-07-30T06:29:27.648Z,1.88
2022-07-30T06:31:54.621Z,1.73
2022-07-30T06:34:21.528Z,1.88
2022-07-30T06:36:48.933Z,1.60
2022-07-30T06:39:56.280Z,1.70
2022-07-30T06:42:03.643Z,2.55
2022-07-30T06:44:30.659Z,1.70
2022-07-30T06:46:57.706Z,1.80
2022-07-30T06:49:24.801Z,1.50
2022-07-30T06:51:51.624Z,2.10
2022-07-30T06:54:18.842Z,1.58
2022-07-30T06:56:45.645Z,1.77
2022-07-30T06:59:12.514Z,2.00
2022-07-30T07:01:39.433Z,1.85
2022-07-30T07:04:06.389Z,2.42
2022-07-30T07:06:33.249Z,1.80
2022-07-30T07:09:00.855Z,1.40
2022-07-30T07:11:27.670Z,1.60
2022-07-30T07:13:54.721Z,1.58
2022-07-30T07:16:25.158Z,1.92
2022-07-30T07:18:53.425Z,1.58
2022-07-30T07:21:21.094Z,1.83
2022-07-30T07:23:51.146Z,1.60
2022-07-30T07:26:18.038Z,2.08
2022-07-30T07:28:44.955Z,2.35
2022-07-30T07:31:11.934Z,2.03
2022-07-30T07:33:58.837Z,2.40
2022-07-30T07:36:27.074Z,2.47
2022-07-30T07:38:53.909Z,2.50
2022-07-30T07:41:20.778Z,2.50
2022-07-30T07:43:47.564Z,2.38
2022-07-30T07:46:16.716Z,2.38
2022-07-30T07:49:00.327Z,2.28
2022-07-30T07:51:46.888Z,2.35
2022-07-30T07:54:21.686Z,1.60
2022-07-30T07:56:53.023Z,1.80
2022-07-30T07:59:20.381Z,1.85
2022-07-30T08:01:47.376Z,1.60
2022-07-30T08:04:17.164Z,1.65
2022-07-30T08:06:44.094Z,1.90
2022-07-30T08:09:10.869Z,1.50
2022-07-30T08:11:37.706Z,1.80
2022-07-30T08:14:04.554Z,1.83
2022-07-30T08:16:31.487Z,1.63
2022-07-30T08:18:58.354Z,1.60
2022-07-30T08:21:25.159Z,1.38
2022-07-30T08:23:52.030Z,1.77
2022-07-30T08:26:18.871Z,1.58
2022-07-30T08:28:45.914Z,1.73
2022-07-30T08:31:13.474Z,1.45
2022-07-30T08:33:40.393Z,1.60
2022-07-30T08:36:09.566Z,1.83
2022-07-30T08:38:37.915Z,1.90
2022-07-30T08:41:04.805Z,1.70
2022-07-30T08:43:32.237Z,1.95
2022-07-30T08:46:00.657Z,2.05
2022-07-30T08:48:29.254Z,1.85
2022-07-30T08:50:56.699Z,2.17
2022-07-30T08:53:25.377Z,1.50
2022-07-30T08:55:55.651Z,1.90
2022-07-30T08:58:30.844Z,2.17
2022-07-30T09:00:58.411Z,1.80
2022-07-30T09:03:25.307Z,2.38
2022-07-30T09:05:52.260Z,1.90
2022-07-30T09:08:19.984Z,2.05
2022-07-30T09:10:53.342Z,1.73
2022-07-30T09:13:29.190Z,2.00
2022-07-30T09:15:56.123Z,2.30
2022-07-30T09:18:35.474Z,2.25
2022-07-30T09:21:27.007Z,2.47
2022-07-30T09:24:02.396Z,3.05
2022-07-30T09:26:31.644Z,1.90
2022-07-30T09:29:19.277Z,1.92
2022-07-30T09:32:01.712Z,2.08
2022-07-30T09:34:35.326Z,2.35
2022-07-30T09:37:21.203Z,2.10
2022-07-30T09:39:59.101Z,2.70
2022-07-30T09:42:29.111Z,2.42
2022-07-30T09:45:11.367Z,2.00
2022-07-30T09:47:53.148Z,2.25
2022-07-30T09:50:30.492Z,2.33
2022-07-30T09:53:09.073Z,2.65
2022-07-30T09:55:41.277Z,2.08
2022-07-30T09:58:27.392Z,2.20
2022-07-30T10:01:01.677Z,2.05
2022-07-30T10:03:33.922Z,2.30
2022-07-30T10:06:03.082Z,2.30
2022-07-30T10:08:50.152Z,2.63
2022-07-30T10:11:25.626Z,2.25
2022-07-30T10:13:59.452Z,3.08
2022-07-30T10:16:28.047Z,2.70
2022-07-30T10:19:00.198Z,2.60
2022-07-30T10:21:28.654Z,2.97
2022-07-30T10:23:59.847Z,3.30
2022-07-30T10:26:29.008Z,3.00
2022-07-30T10:28:56.147Z,2.80
2022-07-30T10:31:48.942Z,3.10
2022-07-30T10:36:43.464Z,3.45
2022-07-30T10:39:15.960Z,2.58
2022-07-30T10:42:09.577Z,2.67
2022-07-30T10:44:59.866Z,3.25
2022-07-30T10:47:35.557Z,2.53
2022-07-30T10:50:15.575Z,2.97
2022-07-30T10:52:52.295Z,2.38
2022-07-30T10:58:15.639Z,1.45
2022-07-30T11:00:44.728Z,2.00
2022-07-30T11:03:40.722Z,2.53
2022-07-30T11:06:24.267Z,2.10
2022-07-30T11:08:52.279Z,2.35
2022-07-30T11:11:59.505Z,2.10
2022-07-30T11:14:12.914Z,2.20
2022-07-30T11:16:39.874Z,2.92
2022-07-30T11:19:53.182Z,2.55
2022-07-30T11:22:44.598Z,2.03
2022-07-30T11:25:50.428Z,1.60
2022-07-30T11:28:38.012Z,2.28
2022-07-30T11:31:49.858Z,1.95
2022-07-30T11:34:18.845Z,1.45
2022-07-30T11:37:18.093Z,1.70
2022-07-30T11:39:55.228Z,1.70
2022-07-30T11:42:34.695Z,2.03
2022-07-30T11:45:26.853Z,2.03
2022-07-30T11:47:56.709Z,1.55
2022-07-30T11:50:30.183Z,1.65
2022-07-30T11:53:01.238Z,1.40
2022-07-30T11:55:30.906Z,1.55
2022-07-30T11:58:00.582Z,1.30
2022-07-30T12:00:48.233Z,1.38
2022-07-30T12:03:16.832Z,1.77
2022-07-30T12:05:44.205Z,1.98
2022-07-30T12:08:32.776Z,1.63
2022-07-30T12:11:02.518Z,1.65
2022-07-30T12:13:42.779Z,1.38
2022-07-30T12:16:13.881Z,1.90
2022-07-30T12:18:40.794Z,1.73
2022-07-30T12:21:10.078Z,1.83
2022-07-30T12:23:37.700Z,1.98
2022-07-30T12:26:05.493Z,2.00
2022-07-30T12:28:34.586Z,2.55
2022-07-30T12:31:04.740Z,2.75
2022-07-30T12:33:31.857Z,1.77
2022-07-30T12:36:01.533Z,2.30
2022-07-30T12:38:29.490Z,2.10
2022-07-30T12:41:00.874Z,2.30
2022-07-30T12:43:54.572Z,2.85
2022-07-30T12:46:23.899Z,1.90
2022-07-30T12:48:58.211Z,1.60
2022-07-30T12:51:33.887Z,1.63
2022-07-30T12:54:20.209Z,1.90
2022-07-30T12:57:00.675Z,3.03
2022-07-30T12:59:28.931Z,2.17
2022-07-30T13:02:01.317Z,2.50
2022-07-30T13:04:28.661Z,2.00
2022-07-30T13:07:12.387Z,2.28
2022-07-30T13:09:43.129Z,2.20
2022-07-30T13:12:14.346Z,2.00
2022-07-30T13:14:41.210Z,1.95
2022-07-30T13:17:09.861Z,2.40
2022-07-30T13:19:37.590Z,2.08
2022-07-30T13:22:04.849Z,1.75
2022-07-30T13:24:32.725Z,1.60
2022-07-30T13:27:02.886Z,2.42
2022-07-30T13:29:30.198Z,1.70
2022-07-30T13:31:57.947Z,1.85
2022-07-30T13:34:25.998Z,1.85
2022-07-30T13:36:53.367Z,2.15
2022-07-30T13:39:24.026Z,1.30
2022-07-30T13:41:50.821Z,1.70
2022-07-30T13:44:17.804Z,1.65
2022-07-30T13:46:44.607Z,1.80
2022-07-30T13:49:11.541Z,2.30
2022-07-30T13:51:38.409Z,1.10
2022-07-30T13:54:05.583Z,1.38
2022-07-30T13:56:32.442Z,1.55
2022-07-30T13:59:01.054Z,1.80
2022-07-30T14:01:28.127Z,1.75
2022-07-30T14:03:55.821Z,1.38
2022-07-30T14:06:22.811Z,1.73
2022-07-30T14:08:49.651Z,1.70
2022-07-30T14:11:17.929Z,1.73
2022-07-30T14:13:45.880Z,2.20
2022-07-30T14:16:35.276Z,2.03
2022-07-30T14:19:01.931Z,1.63
2022-07-30T14:21:28.851Z,1.70
2022-07-30T14:23:56.982Z,1.73
2022-07-30T14:26:23.884Z,1.80
2022-07-30T14:28:51.091Z,1.58
2022-07-30T14:31:17.970Z,2.17
2022-07-30T14:33:44.826Z,1.38
2022-07-30T14:36:11.632Z,1.70
2022-07-30T14:38:40.004Z,1.70
2022-07-30T14:41:08.955Z,1.80
2022-07-30T14:43:35.913Z,1.77
2022-07-30T14:46:02.739Z,1.95
2022-07-30T14:48:29.617Z,1.45
2022-07-30T14:51:14.404Z,1.85
2022-07-30T14:53:43.496Z,2.10
2022-07-30T14:56:14.209Z,1.70
2022-07-30T14:58:41.744Z,1.90
2022-07-30T15:01:16.514Z,2.05
2022-07-30T15:03:45.373Z,1.90
2022-07-30T15:06:13.198Z,1.42
2022-07-30T15:08:40.030Z,2.38
2022-07-30T15:11:07.223Z,1.90
2022-07-30T15:13:35.768Z,2.00
2022-07-30T15:16:03.770Z,2.00
2022-07-30T15:18:30.628Z,1.90
2022-07-30T15:20:58.451Z,2.10
2022-07-30T15:23:25.423Z,2.83
2022-07-30T15:25:52.304Z,2.63
2022-07-30T15:28:19.735Z,1.95
2022-07-30T15:30:46.679Z,1.95
2022-07-30T15:33:13.575Z,2.40
2022-07-30T15:35:40.465Z,1.70
2022-07-30T15:38:07.291Z,2.05
2022-07-30T15:40:34.135Z,2.17
2022-07-30T15:43:00.956Z,2.63
2022-07-30T15:45:27.805Z,2.03
2022-07-30T15:47:54.663Z,1.83
2022-07-30T15:50:21.551Z,2.10
2022-07-30T15:52:48.427Z,1.83
2022-07-30T15:55:15.584Z,1.73
2022-07-30T15:57:43.431Z,2.15
2022-07-30T16:00:11.225Z,1.70
2022-07-30T16:02:38.215Z,1.77
2022-07-30T16:05:05.735Z,1.85
2022-07-30T16:07:35.675Z,1.92
2022-07-30T16:10:05.207Z,2.08
2022-07-30T16:12:32.299Z,1.85
2022-07-30T16:14:59.112Z,1.95
2022-07-30T16:17:25.968Z,2.20
2022-07-30T16:19:52.780Z,2.30
2022-07-30T16:22:23.887Z,1.90
2022-07-30T16:24:51.687Z,2.00
2022-07-30T16:27:19.219Z,2.22
2022-07-30T16:29:46.070Z,1.98
2022-07-30T16:32:12.960Z,1.85
2022-07-30T16:34:39.816Z,1.50
2022-07-30T16:37:06.652Z,1.95
2022-07-30T16:39:33.501Z,2.10
2022-07-30T16:42:00.800Z,1.90
2022-07-30T16:44:31.699Z,2.10
2022-07-30T16:46:58.534Z,2.00
2022-07-30T16:49:25.468Z,1.83
2022-07-30T16:51:52.559Z,1.90
2022-07-30T16:54:19.517Z,2.25
2022-07-30T16:56:46.317Z,1.75
2022-07-30T16:59:14.610Z,1.70
2022-07-30T17:01:41.506Z,1.52
2022-07-30T17:04:08.283Z,1.70
2022-07-30T17:06:36.464Z,1.73
2022-07-30T17:09:03.589Z,2.00
2022-07-30T17:11:46.766Z,1.90
2022-07-30T17:14:15.319Z,1.83
2022-07-30T17:16:42.312Z,1.50
2022-07-30T17:19:09.839Z,2.00
2022-07-30T17:21:38.228Z,2.15
2022-07-30T17:24:11.333Z,2.30
2022-07-30T17:26:43.469Z,1.50
2022-07-30T17:29:15.517Z,1.67
2022-07-30T17:31:44.502Z,1.48
2022-07-30T17:34:14.154Z,1.70
2022-07-30T17:36:47.031Z,1.63
2022-07-30T17:40:23.000Z,1.83
2022-07-30T17:42:10.865Z,1.98
2022-07-30T17:44:39.457Z,2.20
2022-07-30T17:47:09.767Z,2.15
2022-07-30T17:49:39.448Z,1.85
2022-07-30T17:52:06.382Z,2.05
2022-07-30T17:54:33.312Z,2.35
2022-07-30T17:57:00.218Z,2.80
2022-07-30T17:59:27.284Z,2.15
2022-07-30T18:01:54.218Z,2.22
2022-07-30T18:04:22.772Z,2.03
2022-07-30T18:06:50.805Z,1.52
2022-07-30T18:09:18.759Z,1.80
2022-07-30T18:11:45.702Z,1.98
2022-07-30T18:14:12.551Z,1.83
2022-07-30T18:16:39.432Z,1.30
2022-07-30T18:19:06.378Z,1.48
2022-07-30T18:21:34.578Z,1.63
2022-07-30T18:24:05.845Z,2.05
2022-07-30T18:26:38.512Z,1.70
2022-07-30T18:29:08.883Z,1.20
2022-07-30T18:31:39.453Z,1.80
2022-07-30T18:34:06.300Z,2.13
2022-07-30T18:36:33.345Z,1.25
2022-07-30T18:39:00.546Z,1.13
2022-07-30T18:41:27.959Z,1.20
2022-07-30T18:43:54.898Z,1.65
2022-07-30T18:46:22.823Z,1.50
2022-07-30T18:48:49.840Z,1.63
2022-07-30T18:51:20.609Z,1.70
2022-07-30T18:53:48.134Z,1.73
2022-07-30T18:56:16.112Z,1.83
2022-07-30T18:58:43.069Z,1.80
2022-07-30T19:01:10.124Z,2.22
2022-07-30T19:03:37.093Z,1.95
2022-07-30T19:06:04.831Z,2.88
2022-07-30T19:08:32.335Z,1.92
2022-07-30T19:10:59.846Z,2.20
2022-07-30T19:13:26.911Z,2.20
2022-07-30T19:15:54.169Z,1.63
2022-07-30T19:18:22.641Z,1.50
2022-07-30T19:20:50.818Z,1.60
2022-07-30T19:23:19.138Z,1.45
2022-07-30T19:25:46.220Z,1.60
2022-07-30T19:28:15.781Z,1.52
2022-07-30T19:30:42.997Z,1.42
2022-07-30T19:33:15.192Z,1.45
2022-07-30T19:35:44.324Z,1.88
2022-07-30T19:38:11.923Z,1.80
2022-07-30T19:40:50.842Z,1.83
2022-07-30T19:43:23.115Z,1.80
2022-07-30T19:45:51.633Z,1.70
2022-07-30T19:48:29.440Z,2.05
2022-07-30T19:51:00.762Z,1.85
2022-07-30T19:53:34.784Z,2.47
2022-07-30T19:56:10.629Z,2.20
2022-07-30T19:58:38.046Z,2.28
2022-07-30T20:03:54.500Z,2.30
2022-07-30T20:06:25.246Z,2.17
2022-07-30T20:08:53.305Z,2.95
2022-07-30T20:11:24.154Z,2.45
2022-07-30T20:14:04.041Z,2.42
2022-07-30T20:16:31.048Z,2.60
2022-07-30T20:18:59.307Z,2.55
2022-07-30T20:21:56.949Z,2.38
2022-07-30T20:24:14.873Z,1.65
2022-07-30T20:26:42.300Z,1.90
2022-07-30T20:29:18.803Z,1.80
2022-07-30T20:31:47.062Z,2.13
2022-07-30T20:34:19.888Z,2.30
2022-07-30T20:36:50.920Z,2.90
2022-07-30T20:39:19.920Z,2.53
2022-07-30T20:41:46.970Z,2.10
2022-07-30T20:44:23.549Z,2.33
2022-07-30T20:46:52.657Z,2.58
2022-07-30T20:49:24.308Z,2.13
2022-07-30T20:52:01.535Z,1.88
2022-07-30T20:54:30.355Z,1.70
2022-07-30T20:56:59.075Z,1.13
2022-07-30T20:59:35.599Z,1.60
2022-07-30T21:02:05.427Z,1.90
2022-07-30T21:04:33.911Z,1.67
2022-07-30T21:07:01.015Z,1.90
2022-07-30T21:09:49.728Z,1.80
2022-07-30T21:12:32.658Z,1.40
2022-07-30T21:15:00.130Z,1.70
2022-07-30T21:17:35.900Z,1.73
2022-07-30T21:20:08.387Z,1.83
2022-07-30T21:22:35.432Z,3.20
2022-07-30T21:25:02.515Z,3.08
2022-07-30T21:27:38.060Z,3.53
2022-07-30T21:30:09.713Z,3.20
2022-07-30T21:32:42.636Z,3.50
2022-07-30T21:35:09.760Z,3.60
2022-07-30T21:37:38.715Z,3.40
2022-07-30T21:40:10.510Z,4.60
2022-07-30T21:42:48.617Z,4.13
2022-07-30T21:45:15.881Z,4.13
2022-07-30T21:47:47.671Z,4.47
2022-07-30T21:50:16.122Z,3.92
2022-07-30T21:52:44.255Z,3.63
2022-07-30T21:55:13.463Z,3.85
2022-07-30T21:57:41.059Z,3.60
2022-07-30T22:00:14.949Z,4.05
2022-07-30T22:02:52.892Z,3.80
2022-07-30T22:05:21.750Z,4.60
2022-07-30T22:07:53.905Z,3.95
2022-07-30T22:10:27.927Z,3.63
2022-07-30T22:12:55.166Z,4.05
2022-07-30T22:15:23.868Z,4.05
2022-07-30T22:17:58.403Z,3.97
2022-07-30T22:20:30.783Z,4.18
2022-07-30T22:22:59.880Z,4.18
2022-07-30T22:25:43.769Z,4.45
2022-07-30T22:28:18.381Z,5.35
2022-07-30T22:30:45.451Z,4.20
2022-07-30T22:33:26.277Z,4.25
2022-07-30T22:35:59.153Z,4.05
2022-07-30T22:38:27.306Z,4.22
2022-07-30T22:41:03.350Z,4.60
2022-07-30T22:43:35.488Z,4.45
2022-07-30T22:46:14.886Z,4.38
2022-07-30T22:49:00.675Z,3.60
2022-07-30T22:52:01.974Z,3.08
2022-07-30T22:54:14.820Z,4.80
2022-07-30T22:56:42.950Z,4.18
2022-07-30T22:59:13.265Z,3.10
2022-07-30T23:01:43.536Z,3.47
2022-07-30T23:04:10.843Z,3.45
2022-07-30T23:06:37.893Z,3.15
2022-07-30T23:09:08.775Z,3.35
2022-07-30T23:11:38.909Z,2.63
2022-07-30T23:12:15.623Z,2.30
2022-07-30T23:14:06.735Z,2.97
2022-07-30T23:16:33.668Z,3.10
2022-07-30T23:19:00.809Z,2.83
2022-07-30T23:21:27.646Z,2.83
2022-07-30T23:23:54.639Z,3.05
2022-07-30T23:26:21.897Z,2.80
2022-07-30T23:28:49.336Z,2.45
2022-07-30T23:31:16.302Z,2.60
2022-07-30T23:33:43.685Z,2.45
2022-07-30T23:36:11.230Z,2.30
2022-07-30T23:38:38.147Z,2.45
2022-07-30T23:41:05.854Z,2.55
2022-07-30T23:43:36.501Z,2.38
2022-07-30T23:46:04.109Z,2.47
2022-07-30T23:48:36.416Z,1.98
2022-07-30T23:51:03.554Z,1.77
2022-07-30T23:53:36.364Z,1.98
2022-07-30T23:56:03.637Z,1.70
2022-07-30T23:58:30.494Z,2.10
